Time;durP1;ratioP1;P1;durP2;ratioP2;P2;SDS_P1;SDS_P2;PMS_P1;PMS_P2;Temp;Humidity;BMP_temperature;BMP_pressure;BME280_temperature;BME280_humidity;BME280_pressure;Samples;Min_cycle;Max_cycle;Signal;HPM_P1;HPM_P2
2022/03/19 00:01:51;;;;;;;16.45;3.78;;;8.30;99.90;;;;;;4962164;28;20479;-66
2022/03/19 00:04:17;;;;;;;14.85;3.22;;;8.40;99.90;;;;;;4963803;28;20051;-66
2022/03/19 00:06:46;;;;;;;19.35;3.00;;;8.40;99.90;;;;;;4965334;28;20038;-66
2022/03/19 00:09:12;;;;;;;20.27;3.30;;;8.20;99.90;;;;;;4979000;28;20113;-67
2022/03/19 00:11:39;;;;;;;16.83;3.55;;;8.30;99.90;;;;;;4979023;28;20046;-66
2022/03/19 00:14:05;;;;;;;22.52;5.78;;;8.40;99.90;;;;;;4972130;28;20043;-66
2022/03/19 00:16:30;;;;;;;14.00;3.78;;;8.40;99.90;;;;;;4955713;28;20050;-66
2022/03/19 00:18:56;;;;;;;14.32;3.70;;;8.30;99.90;;;;;;4971618;28;20055;-66
2022/03/19 00:21:21;;;;;;;13.20;3.05;;;8.30;99.90;;;;;;4960510;28;20073;-66
2022/03/19 00:23:47;;;;;;;8.45;2.78;;;8.20;99.90;;;;;;4965198;28;20054;-66
2022/03/19 00:26:14;;;;;;;12.85;3.15;;;8.20;99.90;;;;;;4973049;28;20047;-66
2022/03/19 00:28:40;;;;;;;13.32;3.17;;;8.20;99.90;;;;;;4968051;28;20099;-66
2022/03/19 00:31:07;;;;;;;12.85;2.83;;;8.10;99.90;;;;;;4959020;28;20422;-66
2022/03/19 00:33:33;;;;;;;10.75;2.70;;;8.20;99.90;;;;;;4974403;28;20117;-66
2022/03/19 00:35:59;;;;;;;10.52;3.55;;;8.20;99.90;;;;;;4981717;28;20085;-66
2022/03/19 00:38:25;;;;;;;20.58;3.28;;;8.20;99.90;;;;;;4963779;28;20499;-66
2022/03/19 00:40:51;;;;;;;18.75;3.25;;;8.10;99.90;;;;;;4973778;28;20077;-67
2022/03/19 00:43:19;;;;;;;17.55;3.97;;;8.10;99.90;;;;;;4978019;28;20520;-67
2022/03/19 00:45:46;;;;;;;16.45;5.00;;;8.10;99.90;;;;;;4980640;28;20043;-66
2022/03/19 00:48:12;;;;;;;14.10;3.03;;;8.30;99.90;;;;;;4960680;28;20121;-67
2022/03/19 00:50:38;;;;;;;9.75;2.83;;;8.10;99.90;;;;;;4970222;28;20543;-67
2022/03/19 00:53:04;;;;;;;9.77;2.70;;;8.10;99.90;;;;;;4978205;28;20445;-66
2022/03/19 00:55:29;;;;;;;15.32;3.20;;;8.10;99.90;;;;;;4961260;28;20051;-66
2022/03/19 00:57:55;;;;;;;12.05;2.92;;;8.10;99.90;;;;;;4958568;28;20035;-66
2022/03/19 01:00:24;;;;;;;13.98;2.78;;;8.00;99.90;;;;;;4963476;28;20138;-66
2022/03/19 01:02:51;;;;;;;12.13;2.90;;;8.10;99.90;;;;;;4975366;28;20042;-66
2022/03/19 01:05:17;;;;;;;9.68;3.25;;;8.00;99.90;;;;;;4970198;28;20054;-66
2022/03/19 01:07:50;;;;;;;14.90;2.70;;;7.90;99.90;;;;;;4979324;28;20090;-66
2022/03/19 01:10:25;;;;;;;13.68;2.53;;;8.00;99.90;;;;;;4966432;28;20547;-66
2022/03/19 01:12:53;;;;;;;12.32;3.58;;;7.90;99.90;;;;;;4989139;28;20120;-67
2022/03/19 01:15:19;;;;;;;12.35;2.70;;;7.80;99.90;;;;;;4954260;28;20055;-66
2022/03/19 01:17:45;;;;;;;18.17;3.22;;;7.80;99.90;;;;;;4973623;28;20066;-66
2022/03/19 01:20:13;;;;;;;14.18;3.63;;;7.80;99.90;;;;;;4976667;28;20060;-66
2022/03/19 01:22:40;;;;;;;12.23;3.25;;;7.80;99.90;;;;;;4971571;28;20047;-66
2022/03/19 01:25:07;;;;;;;15.23;3.35;;;7.90;99.90;;;;;;4960722;28;20043;-66
2022/03/19 01:27:33;;;;;;;19.25;3.13;;;7.80;99.90;;;;;;4978164;28;20450;-66
2022/03/19 01:30:00;;;;;;;14.52;3.70;;;7.80;99.90;;;;;;4990309;28;20099;-66
2022/03/19 01:32:25;;;;;;;13.20;3.80;;;7.80;99.90;;;;;;4978172;28;20086;-66
2022/03/19 01:34:51;;;;;;;11.77;2.63;;;7.70;99.90;;;;;;4957678;28;20078;-67
2022/03/19 01:37:16;;;;;;;8.95;2.30;;;7.80;99.90;;;;;;4954344;28;20105;-66
2022/03/19 01:39:42;;;;;;;14.30;3.80;;;7.70;99.90;;;;;;4963416;28;20039;-66
2022/03/19 01:42:08;;;;;;;14.88;3.30;;;7.70;99.90;;;;;;4978526;28;20054;-66
2022/03/19 01:44:33;;;;;;;12.27;2.53;;;7.60;99.90;;;;;;4988006;28;20038;-66
2022/03/19 01:47:02;;;;;;;15.13;3.35;;;7.60;99.90;;;;;;4980934;28;20051;-66
2022/03/19 01:49:29;;;;;;;15.90;2.97;;;7.60;99.90;;;;;;4959124;28;20051;-66
2022/03/19 01:51:55;;;;;;;14.82;3.05;;;7.60;99.90;;;;;;4966382;28;20039;-66
2022/03/19 01:54:34;;;;;;;16.25;4.80;;;7.50;99.90;;;;;;4953351;28;20066;-66
2022/03/19 01:57:01;;;;;;;21.00;4.05;;;7.50;99.90;;;;;;4950728;28;20055;-66
2022/03/19 01:59:32;;;;;;;12.80;3.97;;;7.40;99.90;;;;;;4948922;28;20055;-66
2022/03/19 02:01:59;;;;;;;14.80;3.58;;;7.50;99.90;;;;;;4967477;28;20509;-66
2022/03/19 02:04:24;;;;;;;17.30;3.50;;;7.50;99.90;;;;;;4974745;28;20042;-66
2022/03/19 02:06:50;;;;;;;20.75;4.28;;;7.40;99.90;;;;;;4970801;28;20251;-66
2022/03/19 02:09:16;;;;;;;20.63;3.63;;;7.30;99.90;;;;;;4959183;28;20038;-66
2022/03/19 02:11:41;;;;;;;14.00;4.45;;;7.40;99.90;;;;;;4973736;28;20478;-66
2022/03/19 02:14:07;;;;;;;12.63;2.97;;;7.30;99.90;;;;;;4965102;28;20486;-66
2022/03/19 02:16:33;;;;;;;18.48;3.97;;;7.40;99.90;;;;;;4966942;28;20521;-66
2022/03/19 02:19:00;;;;;;;12.18;3.42;;;7.30;99.90;;;;;;4985943;28;20506;-66
2022/03/19 02:21:26;;;;;;;15.55;3.92;;;7.30;99.90;;;;;;4975748;28;20590;-66
2022/03/19 02:26:46;;;;;;;22.55;4.90;;;7.30;99.90;;;;;;4953766;28;20047;-66
2022/03/19 02:29:12;;;;;;;20.35;3.65;;;7.30;99.90;;;;;;4974303;28;20042;-66
2022/03/19 02:31:42;;;;;;;16.27;2.97;;;7.30;99.90;;;;;;4961410;28;20405;-67
2022/03/19 02:34:08;;;;;;;13.10;3.72;;;7.20;99.90;;;;;;4965580;28;20157;-66
2022/03/19 02:36:40;;;;;;;14.25;4.07;;;7.20;99.90;;;;;;4969790;28;20193;-66
2022/03/19 02:39:32;;;;;;;20.17;4.30;;;7.20;99.90;;;;;;4982950;28;20046;-66
2022/03/19 02:42:06;;;;;;;16.65;4.72;;;7.20;99.90;;;;;;4950069;28;20515;-66
2022/03/19 02:44:32;;;;;;;22.85;4.43;;;7.20;99.90;;;;;;4956402;28;20599;-67
2022/03/19 02:47:00;;;;;;;17.15;4.50;;;7.20;99.90;;;;;;4959219;28;20136;-67
2022/03/19 02:49:25;;;;;;;19.52;5.13;;;7.10;99.90;;;;;;4963961;28;20526;-67
2022/03/19 02:51:53;;;;;;;12.63;4.68;;;7.00;99.90;;;;;;4977972;28;20073;-67
2022/03/19 02:54:24;;;;;;;19.70;4.10;;;7.00;99.90;;;;;;4971799;28;20089;-67
2022/03/19 02:56:51;;;;;;;20.10;5.20;;;7.00;99.90;;;;;;4954884;28;20047;-67
2022/03/19 02:59:22;;;;;;;15.48;3.70;;;6.90;99.90;;;;;;4986425;28;20501;-67
2022/03/19 03:01:50;;;;;;;16.75;3.85;;;7.00;99.90;;;;;;4958565;28;20047;-67
2022/03/19 03:04:16;;;;;;;15.63;4.43;;;7.10;99.90;;;;;;4973690;28;20043;-67
2022/03/19 03:06:47;;;;;;;17.98;5.20;;;7.10;99.90;;;;;;4991890;28;20531;-67
2022/03/19 03:09:13;;;;;;;21.30;3.97;;;7.00;99.90;;;;;;4962991;28;20126;-67
2022/03/19 03:11:40;;;;;;;22.00;4.75;;;7.10;99.90;;;;;;4961985;28;20046;-67
2022/03/19 03:14:08;;;;;;;11.13;3.20;;;7.00;99.90;;;;;;4975174;28;20471;-67
2022/03/19 03:16:34;;;;;;;19.45;4.05;;;7.20;99.90;;;;;;4972465;28;20827;-67
2022/03/19 03:19:05;;;;;;;20.25;3.67;;;7.00;99.90;;;;;;4974841;28;20186;-67
2022/03/19 03:21:32;;;;;;;17.00;4.47;;;6.90;99.90;;;;;;4952213;28;20043;-67
2022/03/19 03:23:58;;;;;;;17.02;4.20;;;6.90;99.90;;;;;;4959326;28;20064;-67
2022/03/19 03:26:24;;;;;;;15.23;4.55;;;6.90;99.90;;;;;;4960941;28;20068;-67
2022/03/19 03:28:50;;;;;;;23.70;5.70;;;6.90;99.90;;;;;;4990325;28;20673;-67
2022/03/19 03:31:15;;;;;;;22.45;5.18;;;6.90;99.90;;;;;;4954543;28;20043;-67
2022/03/19 03:33:41;;;;;;;22.20;4.35;;;6.90;99.90;;;;;;4977534;28;20046;-67
2022/03/19 03:36:07;;;;;;;19.17;4.85;;;6.80;99.90;;;;;;4978919;28;20046;-67
2022/03/19 03:38:32;;;;;;;18.48;4.93;;;6.90;99.90;;;;;;4955998;28;20039;-67
2022/03/19 03:40:58;;;;;;;21.80;3.55;;;6.90;99.90;;;;;;4986950;28;20054;-66
2022/03/19 03:43:24;;;;;;;12.80;3.90;;;6.80;99.90;;;;;;4977136;28;20126;-67
2022/03/19 03:45:50;;;;;;;18.45;4.55;;;6.90;99.90;;;;;;4979130;28;20046;-67
2022/03/19 03:48:16;;;;;;;16.45;4.43;;;6.80;99.90;;;;;;4974954;28;20434;-67
2022/03/19 03:50:42;;;;;;;12.48;3.28;;;6.80;99.90;;;;;;4983690;28;20093;-67
2022/03/19 03:53:08;;;;;;;19.65;4.05;;;6.70;99.90;;;;;;4961813;28;20395;-67
2022/03/19 03:55:36;;;;;;;23.05;4.57;;;6.70;99.90;;;;;;4952642;28;20051;-67
2022/03/19 03:58:03;;;;;;;14.13;5.63;;;6.70;99.90;;;;;;4987376;28;20054;-67
2022/03/19 04:00:30;;;;;;;20.42;4.82;;;6.70;99.90;;;;;;4985064;28;20133;-67
2022/03/19 04:02:55;;;;;;;20.42;4.70;;;6.70;99.90;;;;;;4958687;28;20086;-67
2022/03/19 04:05:22;;;;;;;15.73;4.57;;;6.60;99.90;;;;;;4964887;28;20486;-67
2022/03/19 04:07:48;;;;;;;13.77;4.70;;;6.60;99.90;;;;;;4974240;28;20039;-67
2022/03/19 04:10:13;;;;;;;20.33;4.78;;;6.60;99.90;;;;;;4965495;28;20371;-67
2022/03/19 04:12:39;;;;;;;14.07;4.70;;;6.60;99.90;;;;;;4958370;28;20051;-67
2022/03/19 04:15:06;;;;;;;21.35;5.53;;;6.60;99.90;;;;;;4979181;28;20043;-67
2022/03/19 04:17:32;;;;;;;10.25;3.33;;;6.60;99.90;;;;;;4973724;28;20046;-66
2022/03/19 04:19:57;;;;;;;23.17;4.53;;;6.60;99.90;;;;;;4967373;28;20599;-67
2022/03/19 04:22:23;;;;;;;20.92;4.43;;;6.50;99.90;;;;;;4957084;28;20047;-67
2022/03/19 04:24:49;;;;;;;16.23;4.65;;;6.50;99.90;;;;;;5022857;28;20074;-67
2022/03/19 04:27:14;;;;;;;23.55;6.10;;;6.50;99.90;;;;;;4965527;28;20051;-66
2022/03/19 04:29:41;;;;;;;15.55;5.00;;;6.40;99.90;;;;;;4954492;28;20466;-67
2022/03/19 04:32:07;;;;;;;14.88;4.18;;;6.50;99.90;;;;;;4964765;28;20043;-67
2022/03/19 04:34:33;;;;;;;15.48;4.43;;;6.50;99.90;;;;;;4951913;28;20156;-67
2022/03/19 04:36:59;;;;;;;15.38;5.03;;;6.40;99.90;;;;;;4979599;28;20054;-67
2022/03/19 04:39:24;;;;;;;13.68;4.00;;;6.40;99.90;;;;;;4975881;28;20040;-67
2022/03/19 04:41:50;;;;;;;18.23;4.72;;;6.40;99.90;;;;;;4955915;28;20055;-67
2022/03/19 04:44:16;;;;;;;13.05;4.45;;;6.40;99.90;;;;;;4969177;28;20043;-67
2022/03/19 04:46:42;;;;;;;24.85;5.50;;;6.40;99.90;;;;;;4965248;28;20414;-67
2022/03/19 04:49:08;;;;;;;18.35;4.45;;;6.40;99.90;;;;;;4984481;28;20042;-67
2022/03/19 04:51:37;;;;;;;23.15;5.38;;;6.40;99.90;;;;;;4954252;28;20098;-67
2022/03/19 04:54:04;;;;;;;16.42;5.43;;;6.40;99.90;;;;;;4968456;28;20038;-67
2022/03/19 04:56:30;;;;;;;15.18;4.68;;;6.40;99.90;;;;;;4970311;28;20449;-67
2022/03/19 04:58:58;;;;;;;20.40;4.10;;;6.40;99.90;;;;;;4975029;28;20039;-67
2022/03/19 05:01:28;;;;;;;18.52;4.45;;;6.30;99.90;;;;;;4955923;28;20395;-67
2022/03/19 05:03:54;;;;;;;18.23;4.70;;;6.30;99.90;;;;;;4970475;28;20050;-67
2022/03/19 05:06:21;;;;;;;15.60;4.78;;;6.30;99.90;;;;;;4972209;28;20061;-67
2022/03/19 05:08:47;;;;;;;20.30;5.65;;;6.20;99.90;;;;;;4971149;28;20047;-67
2022/03/19 05:11:12;;;;;;;19.63;4.85;;;6.20;99.90;;;;;;4971057;28;20047;-67
2022/03/19 05:13:38;;;;;;;21.02;5.18;;;6.20;99.90;;;;;;4968130;28;20058;-67
2022/03/19 05:16:04;;;;;;;19.00;4.57;;;6.20;99.90;;;;;;4962061;28;20069;-67
2022/03/19 05:18:30;;;;;;;19.27;5.10;;;6.30;99.90;;;;;;4978040;28;20567;-67
2022/03/19 05:20:56;;;;;;;18.42;5.47;;;6.30;99.90;;;;;;4971075;28;20137;-66
2022/03/19 05:23:23;;;;;;;13.98;5.13;;;6.30;99.90;;;;;;4971061;28;20042;-67
2022/03/19 05:25:49;;;;;;;13.23;4.38;;;6.30;99.90;;;;;;4963673;28;20103;-67
2022/03/19 05:28:15;;;;;;;23.38;5.68;;;6.30;99.90;;;;;;4988124;28;20151;-67
2022/03/19 05:30:40;;;;;;;20.13;6.13;;;6.30;99.90;;;;;;4980443;28;20046;-67
2022/03/19 05:33:06;;;;;;;19.80;4.47;;;6.30;99.90;;;;;;4955521;28;20435;-67
2022/03/19 05:35:32;;;;;;;25.88;6.28;;;6.30;99.90;;;;;;4961833;28;20074;-67
2022/03/19 05:38:00;;;;;;;16.08;5.13;;;6.30;99.90;;;;;;4961061;28;20109;-67
2022/03/19 05:40:28;;;;;;;15.13;4.30;;;6.30;99.90;;;;;;4971364;28;20538;-67
2022/03/19 05:42:53;;;;;;;20.50;5.18;;;6.30;99.90;;;;;;4967575;28;20061;-67
2022/03/19 05:45:20;;;;;;;14.57;4.70;;;6.30;99.90;;;;;;4957995;28;20055;-67
2022/03/19 05:47:46;;;;;;;16.50;4.60;;;6.30;99.90;;;;;;4965219;28;20143;-67
2022/03/19 05:50:12;;;;;;;19.15;4.40;;;6.30;99.90;;;;;;4967550;28;20126;-66
2022/03/19 05:52:39;;;;;;;14.15;5.03;;;6.30;99.90;;;;;;4970081;28;20058;-67
2022/03/19 05:55:05;;;;;;;13.63;4.35;;;6.30;99.90;;;;;;4963254;28;20039;-67
2022/03/19 05:57:30;;;;;;;21.60;5.50;;;6.30;99.90;;;;;;4960306;28;20556;-67
2022/03/19 05:59:56;;;;;;;17.30;4.70;;;6.30;99.90;;;;;;4989231;28;20047;-67
2022/03/19 06:02:21;;;;;;;14.05;4.63;;;6.40;99.90;;;;;;4966308;28;20046;-67
2022/03/19 06:04:47;;;;;;;17.90;5.05;;;6.30;99.90;;;;;;4955015;28;20066;-67
2022/03/19 06:07:12;;;;;;;21.20;5.63;;;6.40;99.90;;;;;;4973399;28;20079;-67
2022/03/19 06:09:38;;;;;;;17.35;5.30;;;6.40;99.90;;;;;;4958503;28;20053;-67
2022/03/19 06:12:04;;;;;;;8.80;4.20;;;6.40;99.90;;;;;;4970201;28;20049;-67
2022/03/19 06:14:29;;;;;;;19.08;5.28;;;6.40;99.90;;;;;;4964342;28;20051;-67
2022/03/19 06:16:55;;;;;;;16.27;5.72;;;6.40;99.90;;;;;;4962929;28;20537;-66
2022/03/19 06:19:21;;;;;;;18.17;5.70;;;6.40;99.90;;;;;;4983951;28;20077;-67
2022/03/19 06:21:47;;;;;;;17.88;5.35;;;6.40;99.90;;;;;;4975271;28;20049;-67
2022/03/19 06:24:12;;;;;;;18.67;5.45;;;6.50;99.90;;;;;;4955688;28;20043;-67
2022/03/19 06:26:38;;;;;;;20.50;4.97;;;6.40;99.90;;;;;;4962448;28;20858;-67
2022/03/19 06:29:04;;;;;;;21.45;5.93;;;6.50;99.90;;;;;;4972191;28;20048;-66
2022/03/19 06:31:30;;;;;;;24.25;6.32;;;6.50;99.90;;;;;;4969541;28;20034;-67
2022/03/19 06:33:55;;;;;;;21.88;6.32;;;6.50;99.90;;;;;;4952105;28;20490;-67
2022/03/19 06:39:05;;;;;;;20.05;5.80;;;6.70;99.90;;;;;;4957779;28;20054;-67
2022/03/19 06:41:32;;;;;;;19.10;4.78;;;6.70;99.90;;;;;;4972417;28;20039;-67
2022/03/19 06:43:58;;;;;;;17.48;5.25;;;6.70;99.90;;;;;;4984046;28;20044;-67
2022/03/19 06:46:24;;;;;;;13.80;5.03;;;6.80;99.90;;;;;;4999944;28;20047;-67
2022/03/19 06:48:50;;;;;;;12.93;5.07;;;6.80;99.90;;;;;;4976195;28;20053;-67
2022/03/19 06:51:17;;;;;;;22.48;5.72;;;6.90;99.90;;;;;;4978705;28;20487;-67
2022/03/19 06:53:43;;;;;;;15.82;5.53;;;7.00;99.90;;;;;;4956573;28;20070;-67
2022/03/19 06:56:09;;;;;;;17.27;7.07;;;7.00;99.90;;;;;;4960114;28;20086;-67
2022/03/19 06:58:34;;;;;;;18.77;5.70;;;7.00;99.90;;;;;;4964074;28;20090;-66
2022/03/19 07:01:01;;;;;;;20.88;6.88;;;7.10;99.90;;;;;;4964073;28;20034;-67
2022/03/19 07:03:26;;;;;;;16.95;5.68;;;7.10;99.90;;;;;;4985032;28;20497;-67
2022/03/19 07:05:52;;;;;;;17.65;6.20;;;7.20;99.90;;;;;;4956864;28;20047;-67
2022/03/19 07:08:17;;;;;;;18.25;5.43;;;7.20;99.90;;;;;;4973596;28;20041;-66
2022/03/19 07:10:43;;;;;;;15.55;5.97;;;7.20;99.90;;;;;;4981643;28;20053;-67
2022/03/19 07:13:09;;;;;;;16.33;6.18;;;7.30;99.90;;;;;;4954370;28;20047;-66
2022/03/19 07:15:34;;;;;;;16.10;5.45;;;7.40;99.90;;;;;;4953372;28;20106;-67
2022/03/19 07:18:01;;;;;;;13.38;5.10;;;7.40;99.90;;;;;;4951459;28;20047;-66
2022/03/19 07:20:28;;;;;;;16.95;6.10;;;7.60;99.90;;;;;;4965543;28;20051;-66
2022/03/19 07:22:58;;;;;;;17.00;5.88;;;7.50;99.90;;;;;;4969093;28;20050;-67
2022/03/19 07:25:26;;;;;;;19.17;8.55;;;7.60;99.90;;;;;;4964011;28;20042;-67
2022/03/19 07:27:54;;;;;;;19.70;6.20;;;7.70;99.90;;;;;;4969266;28;20062;-67
2022/03/19 07:30:19;;;;;;;18.13;5.95;;;7.80;99.90;;;;;;4950426;28;20137;-67
2022/03/19 07:32:46;;;;;;;14.85;5.10;;;7.80;99.90;;;;;;4950270;29;20178;-67
2022/03/19 07:35:13;;;;;;;19.55;6.68;;;7.80;99.90;;;;;;4963989;28;20104;-67
2022/03/19 07:37:40;;;;;;;20.20;6.75;;;7.90;99.90;;;;;;4971275;28;20046;-66
2022/03/19 07:40:07;;;;;;;14.55;5.22;;;8.00;99.90;;;;;;4968624;28;20101;-67
2022/03/19 07:42:34;;;;;;;17.75;7.55;;;8.20;99.90;;;;;;4987495;28;20046;-67
2022/03/19 07:45:00;;;;;;;17.02;5.55;;;8.20;99.90;;;;;;4967071;28;20053;-66
2022/03/19 07:47:26;;;;;;;14.48;6.28;;;8.20;99.90;;;;;;4971830;28;20046;-67
2022/03/19 07:49:51;;;;;;;17.13;5.28;;;8.20;99.90;;;;;;4972879;28;20038;-66
2022/03/19 07:52:17;;;;;;;18.98;5.45;;;8.30;99.90;;;;;;4970507;28;20449;-67
2022/03/19 07:54:43;;;;;;;17.25;5.90;;;8.30;99.90;;;;;;4953227;28;20043;-67
2022/03/19 07:57:10;;;;;;;17.45;5.57;;;8.40;99.90;;;;;;4973117;28;20096;-66
2022/03/19 07:59:37;;;;;;;13.40;5.55;;;8.60;99.90;;;;;;4982246;28;20042;-67
2022/03/19 08:02:04;;;;;;;19.95;6.18;;;8.50;99.90;;;;;;4975641;28;20051;-67
2022/03/19 08:04:30;;;;;;;21.17;6.15;;;8.60;99.90;;;;;;4963743;28;20118;-67
2022/03/19 08:06:56;;;;;;;16.58;6.85;;;8.80;99.90;;;;;;4967297;28;20129;-67
2022/03/19 08:09:23;;;;;;;20.02;7.13;;;9.20;99.90;;;;;;4967043;28;20035;-67
2022/03/19 08:11:49;;;;;;;16.35;6.25;;;10.10;99.90;;;;;;4966896;28;20097;-67
2022/03/19 08:14:16;;;;;;;17.58;6.07;;;10.50;99.90;;;;;;4970210;28;20046;-67
2022/03/19 08:16:42;;;;;;;13.02;5.90;;;11.30;99.90;;;;;;4967694;28;20051;-67
2022/03/19 08:19:10;;;;;;;20.67;6.32;;;11.80;99.90;;;;;;4970470;28;20047;-67
2022/03/19 08:21:38;;;;;;;13.95;5.85;;;12.00;99.90;;;;;;4965562;28;20598;-67
2022/03/19 08:24:05;;;;;;;20.88;6.82;;;12.70;99.90;;;;;;4990083;28;20402;-67
2022/03/19 08:26:30;;;;;;;24.17;6.18;;;13.00;99.90;;;;;;4989960;28;20520;-67
2022/03/19 08:28:56;;;;;;;18.73;5.53;;;13.50;99.90;;;;;;4960645;28;20126;-67
2022/03/19 08:31:21;;;;;;;17.10;5.45;;;13.80;99.90;;;;;;4954001;28;20160;-67
2022/03/19 08:33:48;;;;;;;14.43;5.70;;;13.70;99.90;;;;;;4951875;29;20058;-67
2022/03/19 08:36:14;;;;;;;16.85;6.55;;;14.00;99.90;;;;;;4951748;28;20047;-67
2022/03/19 08:41:24;;;;;;;21.40;4.97;;;14.80;99.90;;;;;;4988275;28;20046;-67
2022/03/19 08:43:50;;;;;;;17.67;5.65;;;14.80;99.90;;;;;;4968208;28;20480;-67
2022/03/19 08:46:15;;;;;;;13.63;4.53;;;14.70;99.90;;;;;;4951626;28;20047;-67
2022/03/19 08:48:41;;;;;;;8.40;4.00;;;14.80;99.90;;;;;;4951720;29;20047;-67
2022/03/19 08:53:51;;;;;;;13.95;4.18;;;14.80;99.20;;;;;;4967797;28;20058;-67
2022/03/19 08:56:17;;;;;;;10.40;3.90;;;15.30;98.20;;;;;;4972444;28;20054;-67
2022/03/19 08:58:42;;;;;;;12.40;5.10;;;15.40;98.30;;;;;;4951813;28;20036;-67
2022/03/19 09:01:08;;;;;;;11.90;4.95;;;15.50;97.10;;;;;;4968587;28;20130;-67
2022/03/19 09:03:33;;;;;;;13.27;4.18;;;15.70;97.00;;;;;;4972319;28;20502;-67
2022/03/19 09:05:59;;;;;;;16.75;4.80;;;15.70;95.90;;;;;;4964932;28;20081;-67
2022/03/19 09:08:26;;;;;;;13.27;4.10;;;15.50;96.70;;;;;;4970377;28;20686;-67
2022/03/19 09:10:52;;;;;;;13.52;4.40;;;15.80;96.30;;;;;;4984937;28;20046;-67
2022/03/19 09:13:18;;;;;;;14.73;4.75;;;16.30;96.30;;;;;;4980522;28;20047;-67
2022/03/19 09:15:43;;;;;;;17.40;4.15;;;16.40;95.80;;;;;;4951142;28;20467;-67
2022/03/19 09:18:09;;;;;;;10.60;3.60;;;15.00;95.00;;;;;;4964375;28;20042;-67
2022/03/19 09:20:35;;;;;;;12.30;4.03;;;14.40;96.30;;;;;;4973395;28;20182;-67
2022/03/19 09:23:02;;;;;;;17.38;4.28;;;13.70;96.70;;;;;;4965228;28;20094;-67
2022/03/19 09:25:28;;;;;;;15.13;3.42;;;13.30;98.40;;;;;;4959488;28;20706;-67
2022/03/19 09:27:53;;;;;;;14.88;4.28;;;13.10;97.10;;;;;;4974551;28;20042;-67
2022/03/19 09:30:19;;;;;;;8.45;2.97;;;12.60;97.90;;;;;;4973542;28;20475;-67
2022/03/19 09:32:44;;;;;;;14.73;4.40;;;12.70;99.40;;;;;;4962116;28;20052;-67
2022/03/19 09:35:10;;;;;;;7.20;2.58;;;13.30;98.30;;;;;;4955541;28;20074;-67
2022/03/19 09:37:36;;;;;;;18.05;5.00;;;13.90;97.10;;;;;;4951501;28;20051;-67
2022/03/19 09:40:03;;;;;;;9.00;3.33;;;14.60;96.00;;;;;;4971807;28;20039;-66
2022/03/19 09:42:28;;;;;;;10.90;2.63;;;14.70;94.80;;;;;;4969145;28;20046;-67
2022/03/19 09:44:54;;;;;;;12.27;3.03;;;15.30;95.40;;;;;;4954627;28;20039;-67
2022/03/19 09:47:20;;;;;;;9.20;2.20;;;15.70;94.60;;;;;;4979031;28;20047;-67
2022/03/19 09:49:45;;;;;;;7.75;2.80;;;15.90;92.30;;;;;;4965895;28;20108;-67
2022/03/19 09:52:12;;;;;;;10.05;2.92;;;16.10;93.50;;;;;;4953712;28;20042;-67
2022/03/19 09:54:39;;;;;;;9.93;3.13;;;16.20;91.30;;;;;;4966584;28;20042;-67
2022/03/19 09:57:05;;;;;;;10.27;2.58;;;16.30;91.00;;;;;;4960734;28;20503;-67
2022/03/19 09:59:30;;;;;;;10.15;3.20;;;16.00;90.80;;;;;;4958563;28;20051;-66
2022/03/19 10:01:56;;;;;;;15.90;2.88;;;16.00;90.10;;;;;;5005406;28;20058;-67
2022/03/19 10:04:22;;;;;;;15.52;3.65;;;16.10;90.90;;;;;;4952130;28;20690;-67
2022/03/19 10:09:46;;;;;;;7.20;2.63;;;16.90;91.00;;;;;;4958133;28;20082;-67
2022/03/19 10:12:20;;;;;;;9.88;3.13;;;16.90;90.50;;;;;;4958168;28;20386;-67
2022/03/19 10:14:51;;;;;;;12.35;3.47;;;16.50;90.70;;;;;;4957055;28;20050;-66
2022/03/19 10:17:30;;;;;;;11.57;2.92;;;16.60;91.00;;;;;;4964508;28;20093;-65
2022/03/19 10:20:05;;;;;;;9.52;2.72;;;16.40;87.50;;;;;;4954742;28;20082;-66
2022/03/19 10:22:31;;;;;;;10.40;2.78;;;16.30;88.50;;;;;;4955440;28;20051;-66
2022/03/19 10:24:59;;;;;;;8.00;2.47;;;16.60;91.30;;;;;;4957563;28;20050;-67
2022/03/19 10:27:25;;;;;;;13.73;3.22;;;16.50;88.00;;;;;;4955150;28;20105;-65
2022/03/19 10:30:04;;;;;;;9.75;2.83;;;16.30;89.50;;;;;;4968913;28;20054;-65
2022/03/19 10:32:30;;;;;;;11.48;2.70;;;16.30;87.60;;;;;;4959088;28;20058;-64
2022/03/19 10:34:55;;;;;;;9.68;2.40;;;16.10;87.80;;;;;;4956894;28;20070;-64
2022/03/19 10:37:41;;;;;;;9.90;2.60;;;15.90;84.90;;;;;;4957735;28;20039;-64
2022/03/19 10:40:09;;;;;;;8.80;2.83;;;16.00;85.40;;;;;;4959274;28;20210;-65
2022/03/19 10:42:36;;;;;;;10.38;3.20;;;15.80;86.80;;;;;;4952093;28;20059;-65
2022/03/19 10:45:02;;;;;;;22.38;3.10;;;16.00;88.20;;;;;;4961358;28;20050;-65
2022/03/19 10:47:27;;;;;;;12.07;2.92;;;15.90;89.30;;;;;;4952970;28;20047;-65
2022/03/19 10:50:00;;;;;;;10.38;2.65;;;16.10;90.00;;;;;;4968488;28;20134;-65
2022/03/19 10:52:27;;;;;;;12.48;3.05;;;16.40;86.90;;;;;;4964175;28;20042;-65
2022/03/19 10:54:55;;;;;;;9.25;2.63;;;16.40;86.10;;;;;;4964343;28;20510;-66
2022/03/19 10:57:21;;;;;;;5.63;2.00;;;16.30;85.90;;;;;;4957088;28;20121;-66
2022/03/19 10:59:46;;;;;;;9.55;2.08;;;16.30;84.30;;;;;;4949975;28;20175;-66
2022/03/19 11:02:15;;;;;;;14.55;3.90;;;16.50;85.20;;;;;;4967387;28;20039;-66
2022/03/19 11:04:41;;;;;;;6.13;2.50;;;16.60;82.20;;;;;;4967351;28;20046;-66
2022/03/19 11:07:10;;;;;;;10.25;3.40;;;16.90;88.80;;;;;;4968475;28;20102;-66
2022/03/19 11:09:38;;;;;;;10.60;2.50;;;16.80;84.80;;;;;;4953612;28;20051;-66
2022/03/19 11:12:07;;;;;;;5.07;1.80;;;17.10;88.00;;;;;;4957865;28;20105;-67
2022/03/19 11:14:36;;;;;;;6.25;2.70;;;17.20;86.30;;;;;;4964629;28;20039;-67
2022/03/19 11:17:33;;;;;;;5.10;2.00;;;17.30;84.00;;;;;;4967719;28;20110;-67
2022/03/19 11:20:04;;;;;;;5.00;2.35;;;17.20;84.00;;;;;;4965336;28;20148;-66
2022/03/19 11:22:40;;;;;;;5.43;2.35;;;17.30;85.40;;;;;;4955810;28;20066;-67
2022/03/19 11:25:30;;;;;;;16.55;2.72;;;17.30;83.30;;;;;;4963312;28;20105;-68
2022/03/19 11:28:09;;;;;;;7.10;1.83;;;17.40;80.10;;;;;;4965676;28;20047;-67
2022/03/19 11:30:38;;;;;;;9.00;3.05;;;17.40;81.80;;;;;;4973217;28;20446;-68
2022/03/19 11:33:14;;;;;;;9.00;2.85;;;17.50;80.20;;;;;;4970569;28;20054;-68
2022/03/19 11:35:42;;;;;;;9.70;2.92;;;17.70;83.10;;;;;;4962742;28;20418;-68
2022/03/19 11:38:11;;;;;;;5.82;1.95;;;17.90;83.30;;;;;;4963427;28;20043;-68
2022/03/19 11:40:38;;;;;;;10.15;2.90;;;17.90;81.90;;;;;;4967544;28;20047;-67
2022/03/19 11:43:05;;;;;;;5.75;2.13;;;18.10;83.10;;;;;;4967631;28;20074;-67
2022/03/19 11:45:51;;;;;;;8.90;2.80;;;18.30;84.30;;;;;;4962777;28;20051;-68
2022/03/19 11:48:38;;;;;;;7.20;2.70;;;18.70;85.10;;;;;;4970129;28;20761;-68
2022/03/19 11:51:35;;;;;;;7.13;2.17;;;18.60;81.70;;;;;;4961513;28;20398;-67
2022/03/19 11:54:12;;;;;;;6.45;2.00;;;18.40;80.90;;;;;;4968970;28;20090;-67
2022/03/19 11:56:41;;;;;;;8.57;2.20;;;18.30;76.20;;;;;;4965151;28;20406;-67
2022/03/19 11:59:44;;;;;;;5.72;2.10;;;18.30;77.20;;;;;;4964544;28;20047;-67
2022/03/19 12:02:12;;;;;;;10.75;2.13;;;18.60;80.00;;;;;;4963001;28;20070;-68
2022/03/19 12:04:45;;;;;;;6.32;2.20;;;18.70;80.10;;;;;;4973721;28;20069;-68
2022/03/19 12:07:11;;;;;;;5.65;2.22;;;18.80;75.70;;;;;;4972629;28;20043;-68
2022/03/19 12:09:39;;;;;;;6.55;2.25;;;18.80;79.70;;;;;;4954918;28;20441;-67
2022/03/19 12:12:11;;;;;;;8.35;2.20;;;18.90;78.90;;;;;;4963296;28;20407;-67
2022/03/19 12:14:37;;;;;;;6.85;1.83;;;18.90;73.30;;;;;;4968483;28;20493;-68
2022/03/19 12:17:23;;;;;;;5.43;1.80;;;19.10;79.30;;;;;;4965684;28;20153;-68
2022/03/19 12:20:01;;;;;;;6.38;1.98;;;19.30;76.70;;;;;;4953347;28;20059;-68
2022/03/19 12:22:28;;;;;;;6.93;1.77;;;19.30;76.90;;;;;;4966023;28;20089;-67
2022/03/19 12:25:19;;;;;;;2.40;1.20;;;19.40;77.40;;;;;;4963458;28;20492;-68
2022/03/19 12:27:53;;;;;;;6.63;1.65;;;19.70;75.50;;;;;;4969908;28;20051;-68
2022/03/19 12:30:21;;;;;;;4.03;1.38;;;19.40;74.90;;;;;;4967655;28;20054;-68
2022/03/19 12:32:58;;;;;;;5.55;1.55;;;19.30;75.00;;;;;;4952502;28;20047;-68
2022/03/19 12:35:25;;;;;;;8.95;1.98;;;19.50;77.20;;;;;;4956469;28;20086;-67
2022/03/19 12:37:51;;;;;;;7.05;2.05;;;19.90;77.90;;;;;;4966898;28;20049;-68
2022/03/19 12:40:23;;;;;;;5.50;1.70;;;19.80;73.80;;;;;;4970901;28;20450;-68
2022/03/19 12:42:53;;;;;;;6.70;1.60;;;19.80;76.20;;;;;;4957739;28;20039;-68
2022/03/19 12:45:20;;;;;;;6.30;1.65;;;20.00;71.70;;;;;;4956276;28;20102;-68
2022/03/19 12:47:50;;;;;;;7.20;1.45;;;20.00;74.00;;;;;;4953896;28;20406;-68
2022/03/19 12:50:18;;;;;;;3.83;1.63;;;19.90;71.00;;;;;;4959260;28;20566;-68
2022/03/19 12:52:47;;;;;;;9.57;2.25;;;20.00;74.70;;;;;;4964660;28;20113;-68
2022/03/19 12:55:20;;;;;;;13.05;2.75;;;19.90;78.40;;;;;;4969339;28;20055;-68
2022/03/19 12:57:56;;;;;;;;;;;19.70;79.80;;;;;;4966832;28;20082;-66
2022/03/19 13:00:22;;;;;;;9.68;2.88;;;19.40;79.50;;;;;;4951995;28;19929;-67
2022/03/19 13:02:49;;;;;;;11.45;3.03;;;19.30;79.00;;;;;;4957119;28;20419;-67